Time;durP1;ratioP1;P1;durP2;ratioP2;P2;SDS_P1;SDS_P2;PMS_P1;PMS_P2;Temp;Humidity;BMP_temperature;BMP_pressure;BME280_temperature;BME280_humidity;BME280_pressure;Samples;Min_cycle;Max_cycle;Signal;HPM_P1;HPM_P2
2021/01/18 00:02:16;;;;;;;0.80;0.80;;;;;;;0.53;86.55;97539.44;299395;225;63009;-60
2021/01/18 00:07:17;;;;;;;0.70;0.70;;;;;;;0.51;86.54;97541.50;299395;207;63004;-59
2021/01/18 00:12:18;;;;;;;0.85;0.85;;;;;;;0.54;86.19;97542.91;299395;262;63009;-58
2021/01/18 00:17:19;;;;;;;0.80;0.80;;;;;;;0.60;86.25;97540.22;299395;235;63005;-59
2021/01/18 00:22:20;;;;;;;0.80;0.80;;;;;;;0.48;86.78;97531.25;299395;199;63008;-63
2021/01/18 00:27:21;;;;;;;1.33;1.33;;;;;;;0.49;86.92;97532.88;299395;223;63004;-62
2021/01/18 00:32:22;;;;;;;0.70;0.70;;;;;;;0.37;87.05;97533.75;299395;211;63009;-59
2021/01/18 00:37:23;;;;;;;0.80;0.80;;;;;;;0.45;86.75;97534.31;299395;221;63005;-62
2021/01/18 00:42:24;;;;;;;0.80;0.80;;;;;;;0.30;87.50;97529.28;299395;245;63009;-62
2021/01/18 00:47:24;;;;;;;0.80;0.80;;;;;;;0.36;87.17;97522.25;299395;219;63005;-58
2021/01/18 00:52:25;;;;;;;0.80;0.80;;;;;;;0.23;87.58;97523.16;299395;267;63018;-64
2021/01/18 00:57:35;;;;;;;0.80;0.80;;;;;;;0.36;86.97;97526.78;299395;212;63004;-63
2021/01/18 01:02:38;;;;;;;0.80;0.80;;;;;;;0.24;87.43;97523.97;299395;202;63009;-63
2021/01/18 01:07:44;;;;;;;1.02;1.02;;;;;;;0.32;87.00;97531.75;299395;219;63005;-63
2021/01/18 01:12:46;;;;;;;0.90;0.90;;;;;;;0.40;86.17;97534.16;299395;233;63009;-61
2021/01/18 01:17:47;;;;;;;0.80;0.80;;;;;;;0.11;87.69;97530.16;299395;243;63005;-62
2021/01/18 01:22:49;;;;;;;0.80;0.80;;;;;;;0.18;87.12;97524.81;299395;294;63009;-63
2021/01/18 01:27:50;;;;;;;0.80;0.80;;;;;;;0.07;87.43;97522.78;299395;249;63004;-63
2021/01/18 01:32:54;;;;;;;0.80;0.80;;;;;;;0.11;87.90;97532.84;299395;254;63009;-63
2021/01/18 01:37:56;;;;;;;0.70;0.70;;;;;;;0.02;87.76;97533.28;299395;209;63005;-64
2021/01/18 01:43:00;;;;;;;0.80;0.80;;;;;;;0.04;88.15;97539.22;299395;249;63020;-64
2021/01/18 01:48:01;;;;;;;0.80;0.80;;;;;;;0.15;87.57;97546.56;299439;215;63005;-64
2021/01/18 01:53:34;;;;;;;0.80;0.80;;;;;;;0.14;87.43;97550.28;299395;213;63009;-64
2021/01/18 01:58:36;;;;;;;0.80;0.80;;;;;;;0.14;87.79;97552.94;299395;259;63004;-64
2021/01/18 02:03:42;;;;;;;0.80;0.80;;;;;;;0.12;87.71;97552.34;299395;242;63009;-62
2021/01/18 02:08:43;;;;;;;0.80;0.80;;;;;;;0.04;88.42;97555.22;299395;271;63005;-63
2021/01/18 02:14:41;;;;;;;0.80;0.80;;;;;;;0.16;87.92;97553.56;299395;204;63024;-63
2021/01/18 02:20:33;;;;;;;0.80;0.80;;;;;;;0.20;87.65;97560.94;299395;286;63004;-63
2021/01/18 02:25:41;;;;;;;0.93;0.93;;;;;;;0.31;87.35;97556.78;299395;225;63005;-64
2021/01/18 02:31:29;;;;;;;0.80;0.80;;;;;;;0.33;86.85;97568.91;299395;218;63009;-63
2021/01/18 02:37:30;;;;;;;0.80;0.80;;;;;;;0.15;87.57;97574.09;299395;204;63004;-65
2021/01/18 02:42:40;;;;;;;0.80;0.80;;;;;;;0.22;87.64;97590.91;299395;277;63009;-64
2021/01/18 02:47:45;;;;;;;0.80;0.80;;;;;;;0.23;88.00;97581.03;299395;220;63005;-61
2021/01/18 02:52:46;;;;;;;0.80;0.80;;;;;;;0.39;86.62;97583.22;299395;199;63009;-64
2021/01/18 02:57:51;;;;;;;0.80;0.80;;;;;;;0.33;86.38;97576.91;299395;283;63004;-64
2021/01/18 03:03:10;;;;;;;0.80;0.80;;;;;;;0.15;87.65;97568.75;299417;222;63009;-64
2021/01/18 03:08:33;;;;;;;0.80;0.80;;;;;;;0.47;85.94;97576.84;299395;211;63005;-63
2021/01/18 03:14:15;;;;;;;0.80;0.80;;;;;;;0.26;86.61;97575.28;299395;204;63008;-64
2021/01/18 03:19:30;;;;;;;0.80;0.80;;;;;;;0.39;86.41;97569.87;299395;230;63019;-63
2021/01/18 03:24:31;;;;;;;0.80;0.80;;;;;;;0.29;86.53;97574.88;299417;220;63005;-66
2021/01/18 03:29:35;;;;;;;0.80;0.80;;;;;;;0.40;86.21;97579.53;299395;197;63005;-63
2021/01/18 03:34:36;;;;;;;0.80;0.80;;;;;;;0.46;85.92;97570.69;299417;218;63004;-64
2021/01/18 03:39:38;;;;;;;0.80;0.80;;;;;;;0.45;85.50;97574.38;299395;252;63005;-64
2021/01/18 03:44:39;;;;;;;0.90;0.90;;;;;;;0.55;85.58;97572.09;299395;212;63005;-64
2021/01/18 03:49:40;;;;;;;0.80;0.80;;;;;;;0.33;86.32;97576.09;299395;218;63009;-60
2021/01/18 03:54:40;;;;;;;0.80;0.80;;;;;;;0.21;86.86;97575.09;299395;203;63008;-65
2021/01/18 03:59:41;;;;;;;0.80;0.80;;;;;;;0.24;86.42;97572.00;299395;210;63009;-65
2021/01/18 04:04:42;;;;;;;0.77;0.77;;;;;;;0.32;86.19;97574.44;299395;254;63004;-68
2021/01/18 04:09:43;;;;;;;0.80;0.80;;;;;;;0.33;86.08;97574.25;299395;246;63009;-65
2021/01/18 04:14:45;;;;;;;0.80;0.80;;;;;;;0.24;86.20;97580.00;299395;245;63005;-67
2021/01/18 04:19:47;;;;;;;0.70;0.70;;;;;;;0.16;86.71;97574.91;299395;206;63009;-66
2021/01/18 04:24:48;;;;;;;0.70;0.70;;;;;;;0.07;86.77;97586.81;299395;213;63004;-67
2021/01/18 04:29:48;;;;;;;0.80;0.80;;;;;;;0.16;87.01;97589.06;299395;204;63009;-64
2021/01/18 04:34:49;;;;;;;0.80;0.80;;;;;;;0.06;86.31;97596.69;299395;261;63004;-65
2021/01/18 04:39:50;;;;;;;0.80;0.80;;;;;;;0.02;86.87;97606.13;299395;208;63017;-67
2021/01/18 04:44:56;;;;;;;0.70;0.70;;;;;;;0.27;85.58;97592.94;299395;262;63005;-66
2021/01/18 04:49:57;;;;;;;0.80;0.80;;;;;;;0.09;85.92;97595.44;299395;198;63008;-66
2021/01/18 04:55:04;;;;;;;0.80;0.80;;;;;;;0.18;85.69;97602.19;299395;212;63004;-65
2021/01/18 05:00:06;;;;;;;0.80;0.80;;;;;;;0.20;85.38;97608.16;299395;198;63009;-65
2021/01/18 05:05:21;;;;;;;0.80;0.80;;;;;;;0.12;84.54;97605.69;299395;204;63004;-66
2021/01/18 05:10:27;;;;;;;0.70;0.70;;;;;;;0.14;85.00;97606.31;299395;215;63009;-66
2021/01/18 05:15:28;;;;;;;0.80;0.80;;;;;;;0.10;84.74;97607.75;299395;204;63005;-63
2021/01/18 05:20:30;;;;;;;1.35;1.25;;;;;;;0.13;84.46;97612.69;299395;273;63008;-58
2021/01/18 05:25:30;;;;;;;0.80;0.80;;;;;;;0.13;83.91;97615.34;299395;246;63008;-65
2021/01/18 05:30:43;;;;;;;0.80;0.80;;;;;;;0.27;83.02;97611.62;299395;205;63009;-66
2021/01/18 05:35:48;;;;;;;0.98;0.98;;;;;;;0.26;82.87;97618.00;299395;242;63005;-65
2021/01/18 05:40:51;;;;;;;0.80;0.80;;;;;;;0.13;83.11;97623.34;299395;202;63009;-66
2021/01/18 05:46:03;;;;;;;0.80;0.80;;;;;;;-0.18;84.58;97627.50;299395;256;63005;-67
2021/01/18 05:51:08;;;;;;;0.80;0.80;;;;;;;-0.11;84.49;97633.66;299395;202;63009;-65
2021/01/18 05:56:19;;;;;;;0.80;0.80;;;;;;;-0.03;84.02;97641.47;299395;202;63011;-68
2021/01/18 06:01:39;;;;;;;0.80;0.80;;;;;;;-0.18;85.27;97638.19;299395;216;63009;-67
2021/01/18 06:07:00;;;;;;;0.80;0.80;;;;;;;0.00;83.86;97650.91;299395;217;63009;-67
2021/01/18 06:12:22;;;;;;;0.80;0.80;;;;;;;0.08;83.36;97656.00;299395;228;63018;-68
2021/01/18 06:17:30;;;;;;;0.80;0.80;;;;;;;-0.03;84.49;97662.81;299395;197;63010;-68
2021/01/18 06:22:31;;;;;;;0.80;0.80;;;;;;;-0.16;85.18;97662.81;299395;271;63009;-66
2021/01/18 06:27:32;;;;;;;0.73;0.73;;;;;;;-0.16;85.83;97673.47;299395;218;63011;-68
2021/01/18 06:32:33;;;;;;;0.70;0.70;;;;;;;-0.20;86.07;97677.56;299395;248;63009;-68
2021/01/18 06:37:37;;;;;;;0.80;0.80;;;;;;;-0.26;86.04;97683.72;299395;203;63010;-67
2021/01/18 06:42:41;;;;;;;0.80;0.80;;;;;;;-0.31;86.39;97680.84;299395;208;63008;-68
2021/01/18 06:47:43;;;;;;;0.73;0.73;;;;;;;-0.36;86.52;97688.66;299417;224;63004;-69
2021/01/18 06:52:47;;;;;;;0.80;0.80;;;;;;;-0.35;86.49;97690.31;299395;212;63009;-66
2021/01/18 06:58:02;;;;;;;1.17;1.17;;;;;;;-0.26;86.03;97683.72;299417;216;63005;-70
2021/01/18 07:03:28;;;;;;;;;;;;;;;-0.30;85.61;97693.16;299996;983;6004;-69
2021/01/18 07:08:40;;;;;;;0.80;0.80;;;;;;;0.03;83.64;97689.66;299422;222;63009;-69
2021/01/18 07:13:44;;;;;;;0.80;0.80;;;;;;;-0.09;83.81;97700.97;299395;241;63005;-68
2021/01/18 07:18:53;;;;;;;0.80;0.80;;;;;;;0.05;82.59;97706.28;299417;232;63021;-68
2021/01/18 07:23:59;;;;;;;0.80;0.80;;;;;;;-0.05;82.87;97712.88;299395;269;63004;-68
2021/01/18 07:29:06;;;;;;;0.70;0.70;;;;;;;-0.05;82.58;97712.88;299395;202;63009;-69
2021/01/18 07:34:14;;;;;;;0.80;0.80;;;;;;;0.02;82.23;97722.69;299395;230;63005;-69
2021/01/18 07:39:41;;;;;;;0.80;0.80;;;;;;;0.24;80.69;97724.97;299395;204;63009;-69
2021/01/18 07:44:46;;;;;;;0.70;0.70;;;;;;;0.23;80.88;97738.50;299395;236;63005;-69
2021/01/18 07:49:51;;;;;;;0.80;0.80;;;;;;;0.20;81.29;97730.91;299395;231;63009;-70
2021/01/18 07:54:54;;;;;;;;;;;;;;;0.14;81.42;97737.06;299996;962;6000;-70
2021/01/18 08:00:24;;;;;;;0.80;0.80;;;;;;;0.14;81.97;97753.09;299400;240;63005;-63
2021/01/18 08:05:27;;;;;;;0.80;0.80;;;;;;;0.20;81.03;97760.28;299395;249;63005;-70
2021/01/18 08:10:53;;;;;;;0.80;0.80;;;;;;;0.27;81.02;97763.78;299395;261;63009;-70
2021/01/18 08:15:56;;;;;;;0.70;0.70;;;;;;;0.30;80.79;97764.19;299395;264;63009;-72
2021/01/18 08:20:58;;;;;;;0.70;0.70;;;;;;;0.39;80.69;97751.41;299395;226;63005;-70
2021/01/18 08:26:00;;;;;;;0.80;0.80;;;;;;;0.45;80.34;97755.13;299396;230;63008;-59
2021/01/18 08:31:02;;;;;;;0.80;0.80;;;;;;;0.66;78.70;97755.72;299396;245;63003;-69
2021/01/18 08:36:03;;;;;;;0.80;0.80;;;;;;;0.61;79.19;97760.84;299396;205;63009;-59
2021/01/18 08:41:09;;;;;;;0.80;0.80;;;;;;;0.70;78.56;97757.94;299396;216;63004;-58
2021/01/18 08:46:39;;;;;;;0.80;0.80;;;;;;;0.55;80.09;97753.66;299396;212;63009;-59
2021/01/18 08:51:45;;;;;;;0.80;0.80;;;;;;;0.51;80.69;97757.78;299396;219;63005;-59
2021/01/18 08:56:46;;;;;;;0.80;0.80;;;;;;;0.60;80.20;97761.88;299396;257;63009;-69
2021/01/18 09:01:59;;;;;;;0.80;0.80;;;;;;;0.48;81.59;97768.87;299396;212;63004;-69
2021/01/18 09:07:03;;;;;;;0.80;0.80;;;;;;;0.69;80.62;97772.34;299397;238;63009;-57
2021/01/18 09:12:09;;;;;;;0.80;0.80;;;;;;;0.75;79.58;97766.97;299419;294;63005;-68
2021/01/18 09:17:11;;;;;;;0.80;0.80;;;;;;;0.68;80.05;97768.03;299397;210;63009;-58
2021/01/18 09:22:12;;;;;;;0.80;0.80;;;;;;;0.70;81.03;97763.28;299396;218;63005;-60
2021/01/18 09:27:15;;;;;;;0.80;0.80;;;;;;;0.87;79.64;97767.16;299396;240;63009;-69
2021/01/18 09:32:17;;;;;;;0.80;0.80;;;;;;;0.87;80.13;97775.19;299396;260;63004;-70
2021/01/18 09:37:21;;;;;;;0.80;0.80;;;;;;;0.90;80.06;97782.78;299396;199;63009;-72
2021/01/18 09:42:23;;;;;;;0.80;0.80;;;;;;;1.00;80.17;97785.84;299417;301;64005;-68
2021/01/18 09:47:24;;;;;;;0.80;0.80;;;;;;;0.94;80.73;97784.00;299396;256;63008;-70
2021/01/18 09:52:26;;;;;;;0.70;0.70;;;;;;;1.03;80.67;97785.41;299396;302;63004;-60
2021/01/18 09:57:28;;;;;;;0.75;0.75;;;;;;;1.17;79.78;97781.66;299396;244;63009;-60
2021/01/18 10:02:34;;;;;;;0.80;0.80;;;;;;;1.21;79.29;97782.87;299395;216;64008;-70
2021/01/18 10:07:45;;;;;;;0.80;0.80;;;;;;;1.22;78.74;97768.47;299397;215;63009;-61
2021/01/18 10:12:51;;;;;;;0.90;0.90;;;;;;;0.98;80.76;97771.88;299395;262;63005;-71
2021/01/18 10:17:54;;;;;;;0.80;0.80;;;;;;;1.20;79.71;97749.16;299395;216;63008;-70
2021/01/18 10:22:56;;;;;;;0.80;0.80;;;;;;;1.20;79.90;97743.00;299395;358;63004;-72
2021/01/18 10:27:58;;;;;;;0.70;0.70;;;;;;;1.28;79.68;97748.91;299395;232;63009;-61
2021/01/18 10:33:01;;;;;;;0.80;0.80;;;;;;;1.32;79.84;97744.78;299395;216;63004;-59
2021/01/18 10:38:37;;;;;;;0.70;0.70;;;;;;;1.36;79.85;97733.66;299395;230;63009;-58
2021/01/18 10:43:38;;;;;;;;;;;;;;;1.52;79.33;97741.19;299996;983;6000;-58
2021/01/18 10:48:39;;;;;;;0.80;0.80;;;;;;;1.55;79.33;97735.41;299400;225;63005;-61
2021/01/18 10:53:40;;;;;;;0.80;0.80;;;;;;;1.75;78.95;97736.09;299395;351;63009;-60
2021/01/18 10:58:42;;;;;;;0.80;0.80;;;;;;;1.84;78.19;97729.44;299395;305;63005;-59
2021/01/18 11:03:44;;;;;;;0.70;0.70;;;;;;;1.95;77.53;97739.47;299395;279;63009;-69
2021/01/18 11:08:51;;;;;;;0.80;0.80;;;;;;;1.71;78.14;97744.78;299395;229;63004;-63
2021/01/18 11:14:05;;;;;;;0.80;0.80;;;;;;;1.74;77.84;97734.44;299395;354;63009;-61
2021/01/18 11:19:07;;;;;;;0.80;0.80;;;;;;;1.53;79.00;97732.94;299395;200;63005;-60
2021/01/18 11:24:08;;;;;;;0.93;0.93;;;;;;;1.72;78.58;97719.66;299395;234;63009;-62
2021/01/18 11:29:09;;;;;;;0.80;0.80;;;;;;;1.80;78.22;97722.06;299395;322;63005;-60
2021/01/18 11:34:13;;;;;;;0.80;0.80;;;;;;;1.73;78.32;97708.75;299395;210;63009;-66
2021/01/18 11:39:14;;;;;;;0.80;0.80;;;;;;;1.75;78.34;97714.69;299395;251;63004;-62
2021/01/18 11:44:14;;;;;;;0.70;0.70;;;;;;;1.90;77.73;97720.53;299395;219;63009;-63
2021/01/18 11:49:15;;;;;;;0.75;0.75;;;;;;;1.88;78.05;97709.25;299395;319;63005;-65
2021/01/18 11:54:16;;;;;;;0.80;0.80;;;;;;;1.92;78.17;97714.97;299395;205;63008;-62
2021/01/18 11:59:18;;;;;;;0.80;0.80;;;;;;;2.17;76.51;97706.94;299395;288;63010;-61
2021/01/18 12:04:18;;;;;;;0.80;0.80;;;;;;;2.14;76.81;97708.19;299395;212;63009;-60
2021/01/18 12:09:19;;;;;;;0.73;0.73;;;;;;;2.26;75.71;97694.91;299395;335;63004;-61
2021/01/18 12:14:20;;;;;;;0.80;0.80;;;;;;;2.28;74.71;97692.84;299395;196;63009;-61
2021/01/18 12:19:22;;;;;;;0.70;0.70;;;;;;;2.29;75.28;97694.47;299395;346;63005;-60
2021/01/18 12:24:23;;;;;;;0.80;0.80;;;;;;;2.21;76.03;97676.00;299395;235;63008;-58
2021/01/18 12:29:24;;;;;;;0.70;0.70;;;;;;;2.35;75.24;97688.25;299395;198;63004;-66
2021/01/18 12:34:26;;;;;;;0.80;0.80;;;;;;;2.32;75.02;97675.28;299395;359;63009;-61
2021/01/18 12:39:27;;;;;;;0.77;0.77;;;;;;;2.21;76.65;97681.38;299395;212;63011;-64
2021/01/18 12:44:28;;;;;;;0.80;0.80;;;;;;;2.13;76.86;97678.97;299395;223;63009;-62
2021/01/18 12:49:28;;;;;;;0.70;0.70;;;;;;;2.21;75.85;97678.69;299395;300;63005;-60
2021/01/18 12:54:31;;;;;;;0.80;0.80;;;;;;;2.24;75.54;97680.94;299395;278;63008;-60
2021/01/18 12:59:32;;;;;;;0.70;0.70;;;;;;;2.27;75.22;97678.63;299395;327;63004;-60
2021/01/18 13:04:34;;;;;;;0.70;0.70;;;;;;;2.17;75.64;97666.78;299395;209;63009;-63
2021/01/18 13:09:34;;;;;;;0.80;0.80;;;;;;;2.28;75.27;97672.25;299395;216;63012;-62
2021/01/18 13:14:35;;;;;;;0.70;0.70;;;;;;;2.14;75.63;97675.25;299395;314;63009;-62
2021/01/18 13:19:37;;;;;;;0.70;0.70;;;;;;;2.03;76.59;97689.38;299395;245;63005;-63
2021/01/18 13:24:38;;;;;;;0.70;0.70;;;;;;;2.00;75.95;97694.13;299395;227;63009;-61
2021/01/18 13:29:39;;;;;;;0.80;0.80;;;;;;;1.99;75.96;97679.09;299395;212;63004;-65
2021/01/18 13:34:42;;;;;;;0.80;0.80;;;;;;;1.93;75.78;97674.63;299395;226;63009;-63
2021/01/18 13:39:43;;;;;;;0.70;0.70;;;;;;;1.72;77.16;97669.66;299395;218;63005;-62
2021/01/18 13:44:44;;;;;;;0.77;0.77;;;;;;;1.71;77.24;97665.34;299395;242;63009;-59
2021/01/18 13:49:48;;;;;;;0.95;0.95;;;;;;;1.75;77.21;97655.81;299394;221;64005;-60
2021/01/18 13:54:49;;;;;;;0.70;0.70;;;;;;;1.69;77.03;97656.72;299417;226;63009;-61
2021/01/18 13:59:51;;;;;;;0.77;0.77;;;;;;;1.58;78.45;97652.06;299395;321;63004;-62
2021/01/18 14:04:52;;;;;;;0.80;0.80;;;;;;;1.90;75.67;97642.12;299395;263;63020;-62
2021/01/18 14:09:53;;;;;;;0.82;0.82;;;;;;;1.76;76.73;97641.41;299395;218;63006;-62
2021/01/18 14:14:57;;;;;;;0.70;0.70;;;;;;;1.75;76.81;97645.09;299395;216;63009;-79
2021/01/18 14:19:58;;;;;;;0.70;0.70;;;;;;;1.65;76.92;97644.81;299417;213;63005;-62
2021/01/18 14:24:59;;;;;;;0.70;0.70;;;;;;;1.48;78.31;97644.50;299395;211;63009;-61
2021/01/18 14:30:00;;;;;;;0.70;0.70;;;;;;;1.49;78.06;97642.66;299395;301;63004;-64
2021/01/18 14:35:01;;;;;;;0.77;0.77;;;;;;;1.68;77.23;97649.72;299395;311;63009;-60
2021/01/18 14:40:06;;;;;;;0.70;0.70;;;;;;;1.45;77.91;97638.75;299395;203;63005;-61
2021/01/18 14:45:08;;;;;;;;;;;;;;;1.56;77.31;97635.41;299996;983;6004;-61
2021/01/18 14:50:15;;;;;;;0.70;0.70;;;;;;;1.77;76.05;97637.69;299400;281;63009;-63
2021/01/18 14:55:16;;;;;;;0.70;0.70;;;;;;;1.43;76.64;97630.13;299395;381;63005;-61
2021/01/18 15:00:19;;;;;;;0.80;0.80;;;;;;;1.54;76.80;97626.78;299395;226;63008;-61
2021/01/18 15:05:20;;;;;;;0.75;0.75;;;;;;;1.37;77.73;97623.00;299395;202;63004;-61
2021/01/18 15:10:23;;;;;;;0.80;0.80;;;;;;;1.40;76.90;97610.00;299395;290;63024;-61
2021/01/18 15:15:25;;;;;;;0.80;0.80;;;;;;;1.49;76.14;97607.87;299395;291;63004;-60
2021/01/18 15:20:26;;;;;;;0.70;0.70;;;;;;;1.28;76.99;97612.56;299395;197;63019;-61
2021/01/18 15:25:27;;;;;;;0.73;0.73;;;;;;;1.15;78.29;97601.94;299395;253;63005;-58
2021/01/18 15:30:28;;;;;;;0.70;0.70;;;;;;;1.07;78.27;97609.41;299395;213;63004;-58
2021/01/18 15:35:29;;;;;;;0.70;0.70;;;;;;;1.04;78.47;97607.97;299395;209;63000;-59
2021/01/18 15:40:30;;;;;;;0.80;0.80;;;;;;;1.05;77.94;97606.94;299395;197;63009;-63
2021/01/18 15:45:32;;;;;;;0.70;0.70;;;;;;;1.00;78.02;97612.12;299395;226;63004;-63
2021/01/18 15:50:33;;;;;;;0.80;0.80;;;;;;;1.00;77.73;97609.47;299395;338;63009;-58
2021/01/18 15:55:34;;;;;;;0.70;0.70;;;;;;;1.07;76.80;97610.22;299395;214;63012;-57
2021/01/18 16:00:35;;;;;;;0.80;0.80;;;;;;;1.00;76.83;97614.81;299395;219;63008;-58
2021/01/18 16:05:36;;;;;;;0.80;0.80;;;;;;;0.83;77.65;97625.16;299395;199;63004;-60
2021/01/18 16:10:36;;;;;;;0.80;0.80;;;;;;;0.83;77.77;97619.81;299395;216;63021;-59
2021/01/18 16:15:37;;;;;;;0.80;0.80;;;;;;;0.81;77.50;97632.56;299395;227;63004;-58
2021/01/18 16:20:38;;;;;;;0.75;0.75;;;;;;;0.79;77.47;97647.97;299395;202;63024;-58
2021/01/18 16:25:39;;;;;;;0.80;0.80;;;;;;;0.79;76.90;97649.84;299395;204;63005;-59
2021/01/18 16:30:40;;;;;;;0.80;0.80;;;;;;;0.88;77.09;97659.25;299395;238;63008;-63
2021/01/18 16:35:41;;;;;;;0.70;0.70;;;;;;;0.95;75.95;97668.06;299394;254;64004;-63
2021/01/18 16:40:44;;;;;;;0.80;0.80;;;;;;;0.89;75.69;97682.28;299395;269;63009;-63
2021/01/18 16:45:45;;;;;;;0.80;0.80;;;;;;;0.96;74.97;97685.75;299395;208;63004;-56
2021/01/18 16:50:46;;;;;;;0.80;0.80;;;;;;;0.87;75.57;97689.69;299395;197;63009;-63
2021/01/18 16:55:47;;;;;;;0.80;0.80;;;;;;;1.09;74.88;97683.00;299395;229;63011;-65
2021/01/18 17:00:49;;;;;;;0.80;0.80;;;;;;;1.16;73.85;97685.63;299395;223;63009;-63
2021/01/18 17:05:50;;;;;;;0.75;0.75;;;;;;;0.97;75.02;97679.38;299395;229;63004;-63
2021/01/18 17:10:51;;;;;;;0.80;0.80;;;;;;;1.09;73.79;97672.28;299395;227;63009;-62
2021/01/18 17:15:54;;;;;;;0.70;0.70;;;;;;;0.89;74.88;97671.59;299394;215;64005;-63
2021/01/18 17:20:57;;;;;;;0.80;0.80;;;;;;;0.80;76.04;97656.81;299395;240;63009;-64
2021/01/18 17:25:58;;;;;;;0.80;0.80;;;;;;;0.83;76.52;97661.75;299395;241;63005;-56
2021/01/18 17:31:01;;;;;;;0.70;0.70;;;;;;;0.77;75.91;97658.06;299395;202;63013;-65
2021/01/18 17:36:02;;;;;;;0.70;0.70;;;;;;;0.99;74.86;97661.28;299395;202;63004;-64
2021/01/18 17:41:04;;;;;;;0.70;0.70;;;;;;;0.64;76.71;97663.47;299395;226;63009;-58
2021/01/18 17:46:05;;;;;;;0.73;0.73;;;;;;;0.72;76.78;97668.56;299395;219;63005;-66
2021/01/18 17:51:06;;;;;;;0.70;0.70;;;;;;;0.79;76.06;97673.88;299395;196;63009;-65
2021/01/18 17:56:07;;;;;;;0.70;0.70;;;;;;;0.81;76.18;97669.16;299395;280;63005;-63
2021/01/18 18:01:08;;;;;;;0.70;0.70;;;;;;;0.70;76.46;97669.78;299395;277;63009;-66
2021/01/18 18:06:09;;;;;;;0.70;0.70;;;;;;;0.62;77.39;97670.88;299395;215;63004;-66
2021/01/18 18:11:11;;;;;;;0.70;0.70;;;;;;;0.63;77.00;97665.31;299395;280;63009;-57
2021/01/18 18:16:14;;;;;;;0.70;0.70;;;;;;;0.70;76.76;97672.47;299395;231;63005;-64
2021/01/18 18:21:20;;;;;;;0.70;0.70;;;;;;;0.80;75.71;97668.31;299395;224;63009;-64
2021/01/18 18:26:29;;;;;;;0.70;0.70;;;;;;;0.63;76.30;97668.00;299395;206;63005;-58
2021/01/18 18:31:38;;;;;;;0.70;0.70;;;;;;;0.76;75.89;97676.97;299395;211;63009;-64
2021/01/18 18:36:47;;;;;;;0.70;0.70;;;;;;;0.76;76.34;97674.28;299395;244;63004;-66
2021/01/18 18:41:50;;;;;;;0.70;0.70;;;;;;;0.89;75.27;97679.59;299395;202;63009;-60
2021/01/18 18:46:52;;;;;;;0.70;0.70;;;;;;;0.77;75.45;97678.59;299395;238;63005;-62
2021/01/18 18:51:59;;;;;;;0.70;0.70;;;;;;;0.80;75.55;97672.84;299395;204;63008;-63
2021/01/18 18:57:00;;;;;;;0.70;0.70;;;;;;;0.79;75.65;97672.03;299395;204;63004;-56
2021/01/18 19:02:04;;;;;;;0.80;0.80;;;;;;;0.75;75.62;97659.31;299395;339;63009;-61
2021/01/18 19:07:07;;;;;;;0.70;0.70;;;;;;;0.77;75.47;97662.59;299395;244;63005;-60
2021/01/18 19:12:09;;;;;;;0.80;0.80;;;;;;;0.76;75.39;97666.28;299395;196;63009;-64
2021/01/18 19:17:11;;;;;;;0.80;0.80;;;;;;;0.75;75.56;97668.13;299395;202;63005;-59
2021/01/18 19:22:16;;;;;;;0.80;0.80;;;;;;;0.66;75.56;97672.91;299395;255;63009;-58
2021/01/18 19:27:17;;;;;;;;;;;;;;;0.52;76.61;97665.97;299996;982;6000;-58
2021/01/18 19:32:18;;;;;;;0.80;0.80;;;;;;;0.57;75.96;97660.00;299400;262;63005;-57
2021/01/18 19:37:19;;;;;;;0.80;0.80;;;;;;;0.48;76.83;97664.75;299395;247;63009;-58
2021/01/18 19:42:21;;;;;;;0.80;0.80;;;;;;;0.33;77.58;97672.19;299395;286;63004;-58
2021/01/18 19:47:22;;;;;;;0.77;0.77;;;;;;;0.36;77.54;97666.41;299395;224;63009;-58
2021/01/18 19:52:23;;;;;;;0.70;0.70;;;;;;;0.29;77.26;97665.62;299395;223;63005;-62
2021/01/18 19:57:26;;;;;;;0.80;0.80;;;;;;;0.19;77.89;97650.03;299395;211;63009;-57
2021/01/18 20:02:28;;;;;;;0.80;0.80;;;;;;;0.19;77.67;97643.88;299395;236;63005;-57
2021/01/18 20:07:29;;;;;;;0.80;0.80;;;;;;;0.19;77.57;97634.03;299395;216;63009;-59
2021/01/18 20:12:37;;;;;;;0.80;0.80;;;;;;;0.22;77.51;97644.28;299395;202;63004;-57
2021/01/18 20:17:38;;;;;;;0.80;0.80;;;;;;;0.10;78.39;97647.78;299395;210;63009;-58
2021/01/18 20:22:40;;;;;;;0.80;0.80;;;;;;;0.05;78.58;97645.72;299395;235;63005;-57
2021/01/18 20:27:41;;;;;;;0.80;0.80;;;;;;;0.12;78.12;97648.41;299395;235;63009;-58
2021/01/18 20:32:48;;;;;;;0.80;0.80;;;;;;;0.09;78.50;97644.28;299395;218;63005;-59
2021/01/18 20:37:50;;;;;;;0.75;0.75;;;;;;;0.15;78.09;97648.81;299395;248;63009;-58
2021/01/18 20:42:52;;;;;;;0.70;0.70;;;;;;;0.17;77.86;97651.25;299394;214;64009;-58
2021/01/18 20:47:56;;;;;;;0.80;0.80;;;;;;;0.16;77.73;97634.44;299395;209;63009;-58
2021/01/18 20:52:57;;;;;;;0.80;0.80;;;;;;;0.28;76.98;97637.28;299417;205;63005;-57
2021/01/18 20:57:58;;;;;;;0.90;0.90;;;;;;;0.32;77.16;97638.50;299396;223;63012;-62
2021/01/18 21:03:00;;;;;;;0.90;0.90;;;;;;;0.15;77.64;97632.78;299396;198;63013;-57
2021/01/18 21:08:02;;;;;;;0.80;0.80;;;;;;;0.23;77.16;97631.75;299396;228;63009;-57
2021/01/18 21:13:04;;;;;;;0.80;0.80;;;;;;;0.09;77.72;97630.94;299396;207;63004;-57
2021/01/18 21:18:06;;;;;;;0.80;0.80;;;;;;;0.10;77.26;97623.78;299396;212;63009;-55
2021/01/18 21:23:08;;;;;;;0.80;0.80;;;;;;;0.16;76.41;97615.75;299396;226;63005;-60
2021/01/18 21:28:10;;;;;;;1.02;1.02;;;;;;;0.25;76.54;97606.50;299396;218;63008;-59
2021/01/18 21:33:11;;;;;;;0.80;0.80;;;;;;;0.06;77.29;97599.34;299396;225;63011;-59
2021/01/18 21:38:13;;;;;;;0.80;0.80;;;;;;;0.03;77.08;97596.28;299396;237;63009;-59
2021/01/18 21:43:15;;;;;;;0.80;0.80;;;;;;;0.00;77.21;97592.19;299396;201;63004;-62
2021/01/18 21:48:17;;;;;;;0.80;0.80;;;;;;;0.00;76.69;97590.31;299397;216;63009;-59
2021/01/18 21:53:17;;;;;;;0.80;0.80;;;;;;;0.05;76.21;97599.56;299396;239;63005;-58
2021/01/18 21:58:18;;;;;;;0.80;0.80;;;;;;;-0.21;76.99;97611.91;299396;215;63008;-57
2021/01/18 22:03:19;;;;;;;0.75;0.75;;;;;;;-0.29;77.89;97604.12;299396;266;63004;-63
2021/01/18 22:08:21;;;;;;;0.70;0.70;;;;;;;-0.24;78.32;97604.31;299396;229;63009;-62
2021/01/18 22:13:21;;;;;;;0.80;0.80;;;;;;;-0.02;76.63;97597.75;299396;218;63005;-58
2021/01/18 22:18:23;;;;;;;0.80;0.80;;;;;;;-0.13;77.23;97593.03;299396;222;63009;-57
2021/01/18 22:23:24;;;;;;;0.80;0.80;;;;;;;-0.35;77.60;97584.44;299396;259;63005;-59
2021/01/18 22:28:28;;;;;;;0.80;0.80;;;;;;;-0.34;77.76;97571.91;299396;214;63009;-60
2021/01/18 22:33:29;;;;;;;0.80;0.80;;;;;;;-0.34;77.41;97580.75;299418;292;63004;-58
2021/01/18 22:38:33;;;;;;;0.70;0.70;;;;;;;-0.44;78.00;97579.53;299397;246;63009;-58
2021/01/18 22:43:33;;;;;;;0.70;0.70;;;;;;;-0.39;77.16;97588.56;299439;251;63005;-58
2021/01/18 22:48:34;;;;;;;0.80;0.80;;;;;;;-0.49;77.94;97587.34;299394;249;63009;-56
2021/01/18 22:53:35;;;;;;;0.80;0.80;;;;;;;-0.56;77.98;97576.66;299395;198;63005;-57
2021/01/18 22:58:36;;;;;;;0.80;0.80;;;;;;;-0.43;76.92;97575.84;299395;200;63009;-58
2021/01/18 23:03:39;;;;;;;0.70;0.70;;;;;;;-0.47;77.18;97564.78;299395;243;63021;-57
2021/01/18 23:08:41;;;;;;;0.80;0.80;;;;;;;-0.53;77.52;97575.44;299395;291;63009;-57
2021/01/18 23:13:42;;;;;;;0.80;0.80;;;;;;;-0.53;77.23;97575.44;299395;255;63005;-58
2021/01/18 23:18:43;;;;;;;0.80;0.80;;;;;;;-0.61;77.24;97570.31;299395;197;63009;-57
2021/01/18 23:23:44;;;;;;;0.80;0.80;;;;;;;-0.47;76.89;97558.62;299395;249;63005;-58
2021/01/18 23:28:48;;;;;;;0.77;0.77;;;;;;;-0.50;76.96;97559.03;299394;203;64009;-57
2021/01/18 23:33:50;;;;;;;0.73;0.73;;;;;;;-0.46;76.26;97545.09;299417;235;63004;-58
2021/01/18 23:38:51;;;;;;;0.80;0.80;;;;;;;-0.54;76.81;97541.81;299373;227;63009;-57
2021/01/18 23:43:52;;;;;;;0.80;0.80;;;;;;;-0.67;77.09;97526.63;299394;220;64005;-56
2021/01/18 23:48:53;;;;;;;0.80;0.80;;;;;;;-0.61;76.50;97535.66;299395;230;63021;-57
2021/01/18 23:53:54;;;;;;;0.70;0.70;;;;;;;-0.53;76.42;97532.78;299395;230;63005;-57
2021/01/18 23:58:55;;;;;;;0.80;0.80;;;;;;;-0.55;75.73;97513.50;299395;197;63009;-57
